sensor_id;sensor_type;location;lat;lon;timestamp;P1;durP1;ratioP1;P2;durP2;ratioP2
15198;SDS011;7700;48.654;9.070;2023-07-16T00:01:22;3.80;;;2.30;;
15198;SDS011;7700;48.654;9.070;2023-07-16T00:03:48;2.30;;;2.10;;
15198;SDS011;7700;48.654;9.070;2023-07-16T00:06:13;2.65;;;2.15;;
15198;SDS011;7700;48.654;9.070;2023-07-16T00:08:39;4.95;;;2.20;;
15198;SDS011;7700;48.654;9.070;2023-07-16T00:11:05;2.70;;;2.20;;
15198;SDS011;7700;48.654;9.070;2023-07-16T00:13:31;2.63;;;2.20;;
15198;SDS011;7700;48.654;9.070;2023-07-16T00:15:57;3.40;;;2.30;;
15198;SDS011;7700;48.654;9.070;2023-07-16T00:18:23;3.80;;;2.53;;
15198;SDS011;7700;48.654;9.070;2023-07-16T00:20:49;2.65;;;2.42;;
15198;SDS011;7700;48.654;9.070;2023-07-16T00:23:15;3.25;;;2.95;;
15198;SDS011;7700;48.654;9.070;2023-07-16T00:25:41;4.35;;;2.50;;
15198;SDS011;7700;48.654;9.070;2023-07-16T00:28:07;2.85;;;2.53;;
15198;SDS011;7700;48.654;9.070;2023-07-16T00:30:33;2.40;;;2.17;;
15198;SDS011;7700;48.654;9.070;2023-07-16T00:32:59;3.83;;;2.38;;
15198;SDS011;7700;48.654;9.070;2023-07-16T00:35:25;2.88;;;2.33;;
15198;SDS011;7700;48.654;9.070;2023-07-16T00:37:51;2.33;;;1.83;;
15198;SDS011;7700;48.654;9.070;2023-07-16T00:40:17;2.03;;;1.92;;
15198;SDS011;7700;48.654;9.070;2023-07-16T00:42:43;1.95;;;1.70;;
15198;SDS011;7700;48.654;9.070;2023-07-16T00:45:10;3.28;;;2.00;;
15198;SDS011;7700;48.654;9.070;2023-07-16T00:47:38;2.80;;;1.75;;
15198;SDS011;7700;48.654;9.070;2023-07-16T00:50:04;4.07;;;1.75;;
15198;SDS011;7700;48.654;9.070;2023-07-16T00:52:30;2.40;;;1.50;;
15198;SDS011;7700;48.654;9.070;2023-07-16T00:54:57;1.70;;;1.60;;
15198;SDS011;7700;48.654;9.070;2023-07-16T00:57:23;3.25;;;2.22;;
15198;SDS011;7700;48.654;9.070;2023-07-16T00:59:50;1.95;;;1.70;;
15198;SDS011;7700;48.654;9.070;2023-07-16T01:02:15;1.70;;;1.58;;
15198;SDS011;7700;48.654;9.070;2023-07-16T01:04:41;2.13;;;1.55;;
15198;SDS011;7700;48.654;9.070;2023-07-16T01:07:08;1.35;;;1.25;;
15198;SDS011;7700;48.654;9.070;2023-07-16T01:09:35;3.85;;;1.70;;
15198;SDS011;7700;48.654;9.070;2023-07-16T01:12:02;1.67;;;1.58;;
15198;SDS011;7700;48.654;9.070;2023-07-16T01:14:29;2.55;;;1.40;;
15198;SDS011;7700;48.654;9.070;2023-07-16T01:16:56;2.00;;;1.50;;
15198;SDS011;7700;48.654;9.070;2023-07-16T01:19:24;2.80;;;1.60;;
15198;SDS011;7700;48.654;9.070;2023-07-16T01:22:10;1.20;;;0.95;;
15198;SDS011;7700;48.654;9.070;2023-07-16T01:27:14;1.20;;;1.10;;
15198;SDS011;7700;48.654;9.070;2023-07-16T01:29:47;1.45;;;1.33;;
15198;SDS011;7700;48.654;9.070;2023-07-16T01:32:15;0.80;;;0.80;;
15198;SDS011;7700;48.654;9.070;2023-07-16T01:34:41;1.13;;;0.93;;
15198;SDS011;7700;48.654;9.070;2023-07-16T01:37:08;2.55;;;1.10;;
15198;SDS011;7700;48.654;9.070;2023-07-16T01:39:34;1.60;;;0.95;;
15198;SDS011;7700;48.654;9.070;2023-07-16T01:42:01;1.55;;;1.00;;
15198;SDS011;7700;48.654;9.070;2023-07-16T01:44:27;3.75;;;1.30;;
15198;SDS011;7700;48.654;9.070;2023-07-16T01:49:32;1.15;;;1.05;;
15198;SDS011;7700;48.654;9.070;2023-07-16T01:51:59;1.73;;;1.05;;
15198;SDS011;7700;48.654;9.070;2023-07-16T01:54:25;1.38;;;0.80;;
15198;SDS011;7700;48.654;9.070;2023-07-16T01:56:51;1.92;;;0.90;;
15198;SDS011;7700;48.654;9.070;2023-07-16T01:59:16;2.10;;;1.30;;
15198;SDS011;7700;48.654;9.070;2023-07-16T02:01:42;2.58;;;1.13;;
15198;SDS011;7700;48.654;9.070;2023-07-16T02:04:08;1.38;;;1.20;;
15198;SDS011;7700;48.654;9.070;2023-07-16T02:06:34;1.75;;;1.10;;
15198;SDS011;7700;48.654;9.070;2023-07-16T02:09:00;1.02;;;0.70;;
15198;SDS011;7700;48.654;9.070;2023-07-16T02:11:26;1.08;;;0.88;;
15198;SDS011;7700;48.654;9.070;2023-07-16T02:13:52;1.17;;;1.05;;
15198;SDS011;7700;48.654;9.070;2023-07-16T02:16:18;1.50;;;1.02;;
15198;SDS011;7700;48.654;9.070;2023-07-16T02:18:44;1.75;;;1.23;;
15198;SDS011;7700;48.654;9.070;2023-07-16T02:21:10;2.35;;;1.10;;
15198;SDS011;7700;48.654;9.070;2023-07-16T02:23:36;1.55;;;1.10;;
15198;SDS011;7700;48.654;9.070;2023-07-16T02:26:02;1.48;;;1.38;;
15198;SDS011;7700;48.654;9.070;2023-07-16T02:28:28;2.15;;;1.30;;
15198;SDS011;7700;48.654;9.070;2023-07-16T02:30:54;2.35;;;1.10;;
15198;SDS011;7700;48.654;9.070;2023-07-16T02:33:20;1.35;;;1.23;;
15198;SDS011;7700;48.654;9.070;2023-07-16T02:35:46;1.55;;;1.13;;
15198;SDS011;7700;48.654;9.070;2023-07-16T02:38:13;1.30;;;1.20;;
15198;SDS011;7700;48.654;9.070;2023-07-16T02:40:42;2.97;;;1.20;;
15198;SDS011;7700;48.654;9.070;2023-07-16T02:43:09;3.53;;;1.23;;
15198;SDS011;7700;48.654;9.070;2023-07-16T02:45:35;4.88;;;1.27;;
15198;SDS011;7700;48.654;9.070;2023-07-16T02:48:01;1.63;;;1.27;;
15198;SDS011;7700;48.654;9.070;2023-07-16T02:50:27;1.63;;;1.10;;
15198;SDS011;7700;48.654;9.070;2023-07-16T02:52:54;2.33;;;1.15;;
15198;SDS011;7700;48.654;9.070;2023-07-16T02:55:20;3.72;;;1.13;;
15198;SDS011;7700;48.654;9.070;2023-07-16T02:57:46;2.08;;;1.20;;
15198;SDS011;7700;48.654;9.070;2023-07-16T03:00:12;3.55;;;1.30;;
15198;SDS011;7700;48.654;9.070;2023-07-16T03:02:38;4.68;;;1.83;;
15198;SDS011;7700;48.654;9.070;2023-07-16T03:05:04;2.22;;;1.42;;
15198;SDS011;7700;48.654;9.070;2023-07-16T03:07:30;2.42;;;1.23;;
15198;SDS011;7700;48.654;9.070;2023-07-16T03:09:56;3.25;;;1.33;;
15198;SDS011;7700;48.654;9.070;2023-07-16T03:12:21;4.53;;;1.27;;
15198;SDS011;7700;48.654;9.070;2023-07-16T03:14:47;5.85;;;1.30;;
15198;SDS011;7700;48.654;9.070;2023-07-16T03:17:15;4.63;;;1.50;;
15198;SDS011;7700;48.654;9.070;2023-07-16T03:19:41;2.40;;;1.30;;
15198;SDS011;7700;48.654;9.070;2023-07-16T03:22:07;3.40;;;1.67;;
15198;SDS011;7700;48.654;9.070;2023-07-16T03:24:33;3.88;;;1.60;;
15198;SDS011;7700;48.654;9.070;2023-07-16T03:26:59;4.68;;;1.80;;
15198;SDS011;7700;48.654;9.070;2023-07-16T03:29:25;4.18;;;1.15;;
15198;SDS011;7700;48.654;9.070;2023-07-16T03:31:51;6.53;;;1.77;;
15198;SDS011;7700;48.654;9.070;2023-07-16T03:34:17;8.45;;;1.98;;
15198;SDS011;7700;48.654;9.070;2023-07-16T03:36:43;5.03;;;1.80;;
15198;SDS011;7700;48.654;9.070;2023-07-16T03:39:09;3.10;;;1.33;;
15198;SDS011;7700;48.654;9.070;2023-07-16T03:41:35;4.85;;;1.85;;
15198;SDS011;7700;48.654;9.070;2023-07-16T03:44:00;3.42;;;1.45;;
15198;SDS011;7700;48.654;9.070;2023-07-16T03:46:26;4.43;;;2.00;;
15198;SDS011;7700;48.654;9.070;2023-07-16T03:48:53;6.57;;;1.88;;
15198;SDS011;7700;48.654;9.070;2023-07-16T03:51:19;4.53;;;1.50;;
15198;SDS011;7700;48.654;9.070;2023-07-16T03:53:45;6.45;;;2.13;;
15198;SDS011;7700;48.654;9.070;2023-07-16T03:56:11;5.95;;;1.38;;
15198;SDS011;7700;48.654;9.070;2023-07-16T03:58:37;7.05;;;1.92;;
15198;SDS011;7700;48.654;9.070;2023-07-16T04:01:03;7.05;;;2.17;;
15198;SDS011;7700;48.654;9.070;2023-07-16T04:03:28;6.53;;;1.98;;
15198;SDS011;7700;48.654;9.070;2023-07-16T04:06:04;3.67;;;1.50;;
15198;SDS011;7700;48.654;9.070;2023-07-16T04:08:31;2.03;;;1.20;;
15198;SDS011;7700;48.654;9.070;2023-07-16T04:10:57;2.33;;;1.35;;
15198;SDS011;7700;48.654;9.070;2023-07-16T04:13:23;2.38;;;1.17;;
15198;SDS011;7700;48.654;9.070;2023-07-16T04:15:49;3.13;;;1.48;;
15198;SDS011;7700;48.654;9.070;2023-07-16T04:18:18;3.00;;;1.33;;
15198;SDS011;7700;48.654;9.070;2023-07-16T04:20:44;6.15;;;1.40;;
15198;SDS011;7700;48.654;9.070;2023-07-16T04:23:10;16.45;;;2.58;;
15198;SDS011;7700;48.654;9.070;2023-07-16T04:25:36;24.67;;;3.30;;
15198;SDS011;7700;48.654;9.070;2023-07-16T04:28:02;14.25;;;2.63;;
15198;SDS011;7700;48.654;9.070;2023-07-16T04:30:29;9.25;;;2.50;;
15198;SDS011;7700;48.654;9.070;2023-07-16T04:32:54;10.48;;;2.17;;
15198;SDS011;7700;48.654;9.070;2023-07-16T04:35:20;5.43;;;1.67;;
15198;SDS011;7700;48.654;9.070;2023-07-16T04:37:46;5.60;;;1.75;;
15198;SDS011;7700;48.654;9.070;2023-07-16T04:40:12;3.70;;;1.60;;
15198;SDS011;7700;48.654;9.070;2023-07-16T04:42:38;6.82;;;1.70;;
15198;SDS011;7700;48.654;9.070;2023-07-16T04:45:04;6.00;;;1.83;;
15198;SDS011;7700;48.654;9.070;2023-07-16T04:47:30;5.43;;;1.67;;
15198;SDS011;7700;48.654;9.070;2023-07-16T04:50:00;5.68;;;1.70;;
15198;SDS011;7700;48.654;9.070;2023-07-16T04:52:25;5.00;;;1.52;;
15198;SDS011;7700;48.654;9.070;2023-07-16T04:54:51;5.60;;;1.80;;
15198;SDS011;7700;48.654;9.070;2023-07-16T04:57:17;5.65;;;1.70;;
15198;SDS011;7700;48.654;9.070;2023-07-16T04:59:43;7.45;;;2.10;;
15198;SDS011;7700;48.654;9.070;2023-07-16T05:02:09;4.65;;;1.42;;
15198;SDS011;7700;48.654;9.070;2023-07-16T05:04:35;3.15;;;1.60;;
15198;SDS011;7700;48.654;9.070;2023-07-16T05:07:01;3.08;;;1.70;;
15198;SDS011;7700;48.654;9.070;2023-07-16T05:09:28;5.97;;;1.83;;
15198;SDS011;7700;48.654;9.070;2023-07-16T05:11:54;5.70;;;2.03;;
15198;SDS011;7700;48.654;9.070;2023-07-16T05:14:19;4.47;;;1.55;;
15198;SDS011;7700;48.654;9.070;2023-07-16T05:16:45;4.07;;;1.83;;
15198;SDS011;7700;48.654;9.070;2023-07-16T05:19:11;4.55;;;1.70;;
15198;SDS011;7700;48.654;9.070;2023-07-16T05:21:37;4.43;;;1.58;;
15198;SDS011;7700;48.654;9.070;2023-07-16T05:24:03;6.93;;;1.73;;
15198;SDS011;7700;48.654;9.070;2023-07-16T05:26:29;2.25;;;1.60;;
15198;SDS011;7700;48.654;9.070;2023-07-16T05:28:55;3.03;;;1.65;;
15198;SDS011;7700;48.654;9.070;2023-07-16T05:31:21;4.80;;;1.80;;
15198;SDS011;7700;48.654;9.070;2023-07-16T05:33:47;5.95;;;1.58;;
15198;SDS011;7700;48.654;9.070;2023-07-16T05:36:13;4.22;;;1.52;;
15198;SDS011;7700;48.654;9.070;2023-07-16T05:38:39;2.72;;;1.60;;
15198;SDS011;7700;48.654;9.070;2023-07-16T05:41:05;5.80;;;1.77;;
15198;SDS011;7700;48.654;9.070;2023-07-16T05:43:31;4.13;;;1.50;;
15198;SDS011;7700;48.654;9.070;2023-07-16T05:45:58;7.07;;;1.92;;
15198;SDS011;7700;48.654;9.070;2023-07-16T05:48:24;4.40;;;1.52;;
15198;SDS011;7700;48.654;9.070;2023-07-16T05:50:50;5.90;;;1.73;;
15198;SDS011;7700;48.654;9.070;2023-07-16T05:53:16;5.85;;;1.92;;
15198;SDS011;7700;48.654;9.070;2023-07-16T05:55:42;5.82;;;1.52;;
15198;SDS011;7700;48.654;9.070;2023-07-16T05:58:08;4.95;;;1.95;;
15198;SDS011;7700;48.654;9.070;2023-07-16T06:00:34;3.97;;;1.45;;
15198;SDS011;7700;48.654;9.070;2023-07-16T06:03:03;5.43;;;1.88;;
15198;SDS011;7700;48.654;9.070;2023-07-16T06:05:29;3.85;;;1.73;;
15198;SDS011;7700;48.654;9.070;2023-07-16T06:07:59;3.17;;;1.92;;
15198;SDS011;7700;48.654;9.070;2023-07-16T06:10:25;3.80;;;1.70;;
15198;SDS011;7700;48.654;9.070;2023-07-16T06:12:51;2.80;;;1.70;;
15198;SDS011;7700;48.654;9.070;2023-07-16T06:15:17;3.17;;;1.40;;
15198;SDS011;7700;48.654;9.070;2023-07-16T06:17:43;3.85;;;1.63;;
15198;SDS011;7700;48.654;9.070;2023-07-16T06:20:09;4.25;;;1.63;;
15198;SDS011;7700;48.654;9.070;2023-07-16T06:22:35;8.57;;;1.92;;
15198;SDS011;7700;48.654;9.070;2023-07-16T06:25:01;5.18;;;1.50;;
15198;SDS011;7700;48.654;9.070;2023-07-16T06:27:27;6.03;;;1.63;;
15198;SDS011;7700;48.654;9.070;2023-07-16T06:29:53;4.68;;;1.75;;
15198;SDS011;7700;48.654;9.070;2023-07-16T06:32:19;4.88;;;1.50;;
15198;SDS011;7700;48.654;9.070;2023-07-16T06:34:45;2.33;;;1.48;;
15198;SDS011;7700;48.654;9.070;2023-07-16T06:37:11;2.72;;;1.70;;
15198;SDS011;7700;48.654;9.070;2023-07-16T06:39:37;2.97;;;1.45;;
15198;SDS011;7700;48.654;9.070;2023-07-16T06:42:03;3.08;;;1.83;;
15198;SDS011;7700;48.654;9.070;2023-07-16T06:44:29;2.15;;;1.42;;
15198;SDS011;7700;48.654;9.070;2023-07-16T06:46:55;4.57;;;1.52;;
15198;SDS011;7700;48.654;9.070;2023-07-16T06:49:22;2.80;;;1.50;;
15198;SDS011;7700;48.654;9.070;2023-07-16T06:51:48;3.08;;;1.50;;
15198;SDS011;7700;48.654;9.070;2023-07-16T06:54:14;2.88;;;1.42;;
15198;SDS011;7700;48.654;9.070;2023-07-16T06:56:40;2.30;;;1.33;;
15198;SDS011;7700;48.654;9.070;2023-07-16T06:59:06;5.00;;;1.40;;
15198;SDS011;7700;48.654;9.070;2023-07-16T07:01:32;3.63;;;1.98;;
15198;SDS011;7700;48.654;9.070;2023-07-16T07:03:58;5.07;;;1.85;;
15198;SDS011;7700;48.654;9.070;2023-07-16T07:06:24;3.30;;;1.50;;
15198;SDS011;7700;48.654;9.070;2023-07-16T07:08:50;2.28;;;1.27;;
15198;SDS011;7700;48.654;9.070;2023-07-16T07:11:16;2.08;;;1.45;;
15198;SDS011;7700;48.654;9.070;2023-07-16T07:13:42;2.97;;;1.63;;
15198;SDS011;7700;48.654;9.070;2023-07-16T07:16:08;4.10;;;1.80;;
15198;SDS011;7700;48.654;9.070;2023-07-16T07:18:34;3.17;;;1.52;;
15198;SDS011;7700;48.654;9.070;2023-07-16T07:21:00;5.18;;;1.50;;
15198;SDS011;7700;48.654;9.070;2023-07-16T07:23:26;2.92;;;1.77;;
15198;SDS011;7700;48.654;9.070;2023-07-16T07:25:51;3.03;;;1.70;;
15198;SDS011;7700;48.654;9.070;2023-07-16T07:28:18;3.88;;;1.73;;
15198;SDS011;7700;48.654;9.070;2023-07-16T07:30:44;4.18;;;1.70;;
15198;SDS011;7700;48.654;9.070;2023-07-16T07:33:10;2.25;;;1.48;;
15198;SDS011;7700;48.654;9.070;2023-07-16T07:35:37;4.95;;;1.40;;
15198;SDS011;7700;48.654;9.070;2023-07-16T07:38:05;3.22;;;1.63;;
15198;SDS011;7700;48.654;9.070;2023-07-16T07:40:31;2.90;;;1.60;;
15198;SDS011;7700;48.654;9.070;2023-07-16T07:42:57;1.98;;;1.50;;
15198;SDS011;7700;48.654;9.070;2023-07-16T07:45:23;4.00;;;1.60;;
15198;SDS011;7700;48.654;9.070;2023-07-16T07:47:50;5.45;;;1.50;;
15198;SDS011;7700;48.654;9.070;2023-07-16T07:50:16;4.00;;;1.75;;
15198;SDS011;7700;48.654;9.070;2023-07-16T07:52:43;2.22;;;1.48;;
15198;SDS011;7700;48.654;9.070;2023-07-16T07:55:09;2.17;;;1.55;;
15198;SDS011;7700;48.654;9.070;2023-07-16T07:57:35;2.55;;;1.52;;
15198;SDS011;7700;48.654;9.070;2023-07-16T08:00:01;4.35;;;1.50;;
15198;SDS011;7700;48.654;9.070;2023-07-16T08:02:27;2.85;;;1.42;;
15198;SDS011;7700;48.654;9.070;2023-07-16T08:04:53;1.95;;;1.30;;
15198;SDS011;7700;48.654;9.070;2023-07-16T08:07:19;3.03;;;1.55;;
15198;SDS011;7700;48.654;9.070;2023-07-16T08:09:46;4.18;;;1.85;;
15198;SDS011;7700;48.654;9.070;2023-07-16T08:12:12;3.72;;;1.40;;
15198;SDS011;7700;48.654;9.070;2023-07-16T08:14:38;2.33;;;1.45;;
15198;SDS011;7700;48.654;9.070;2023-07-16T08:17:04;4.03;;;1.70;;
15198;SDS011;7700;48.654;9.070;2023-07-16T08:19:30;1.67;;;1.20;;
15198;SDS011;7700;48.654;9.070;2023-07-16T08:21:56;3.55;;;1.58;;
15198;SDS011;7700;48.654;9.070;2023-07-16T08:24:22;2.72;;;1.50;;
15198;SDS011;7700;48.654;9.070;2023-07-16T08:26:50;2.88;;;1.70;;
15198;SDS011;7700;48.654;9.070;2023-07-16T08:29:16;2.72;;;1.40;;
15198;SDS011;7700;48.654;9.070;2023-07-16T08:31:41;2.70;;;1.30;;
15198;SDS011;7700;48.654;9.070;2023-07-16T08:34:07;3.05;;;1.77;;
15198;SDS011;7700;48.654;9.070;2023-07-16T08:36:34;2.95;;;1.30;;
15198;SDS011;7700;48.654;9.070;2023-07-16T08:39:00;4.13;;;1.42;;
15198;SDS011;7700;48.654;9.070;2023-07-16T08:41:25;5.22;;;2.03;;
15198;SDS011;7700;48.654;9.070;2023-07-16T08:43:51;3.25;;;1.42;;
15198;SDS011;7700;48.654;9.070;2023-07-16T08:46:18;4.07;;;1.75;;
15198;SDS011;7700;48.654;9.070;2023-07-16T08:48:47;1.73;;;1.40;;
15198;SDS011;7700;48.654;9.070;2023-07-16T08:51:14;2.20;;;1.50;;
15198;SDS011;7700;48.654;9.070;2023-07-16T08:53:43;2.70;;;1.33;;
15198;SDS011;7700;48.654;9.070;2023-07-16T08:56:09;1.90;;;1.35;;
15198;SDS011;7700;48.654;9.070;2023-07-16T08:58:35;3.63;;;1.65;;
15198;SDS011;7700;48.654;9.070;2023-07-16T09:01:02;2.15;;;1.35;;
15198;SDS011;7700;48.654;9.070;2023-07-16T09:03:28;2.00;;;1.20;;
15198;SDS011;7700;48.654;9.070;2023-07-16T09:05:54;3.55;;;1.55;;
15198;SDS011;7700;48.654;9.070;2023-07-16T09:08:20;1.83;;;1.10;;
15198;SDS011;7700;48.654;9.070;2023-07-16T09:10:53;2.92;;;1.40;;
15198;SDS011;7700;48.654;9.070;2023-07-16T09:13:19;2.72;;;1.50;;
15198;SDS011;7700;48.654;9.070;2023-07-16T09:15:50;1.83;;;1.73;;
15198;SDS011;7700;48.654;9.070;2023-07-16T09:18:19;4.68;;;3.63;;
15198;SDS011;7700;48.654;9.070;2023-07-16T09:20:45;2.08;;;1.40;;
15198;SDS011;7700;48.654;9.070;2023-07-16T09:23:11;2.28;;;1.85;;
15198;SDS011;7700;48.654;9.070;2023-07-16T09:25:37;3.38;;;2.72;;
15198;SDS011;7700;48.654;9.070;2023-07-16T09:28:05;3.30;;;1.20;;
15198;SDS011;7700;48.654;9.070;2023-07-16T09:30:31;2.13;;;1.25;;
15198;SDS011;7700;48.654;9.070;2023-07-16T09:33:09;4.60;;;4.20;;
15198;SDS011;7700;48.654;9.070;2023-07-16T09:35:35;3.28;;;1.58;;
15198;SDS011;7700;48.654;9.070;2023-07-16T09:38:02;2.05;;;1.35;;
15198;SDS011;7700;48.654;9.070;2023-07-16T09:40:28;1.30;;;1.20;;
15198;SDS011;7700;48.654;9.070;2023-07-16T09:42:54;1.48;;;1.10;;
15198;SDS011;7700;48.654;9.070;2023-07-16T09:45:21;3.97;;;2.08;;
15198;SDS011;7700;48.654;9.070;2023-07-16T09:47:47;2.40;;;2.10;;
15198;SDS011;7700;48.654;9.070;2023-07-16T09:50:13;3.72;;;3.42;;
15198;SDS011;7700;48.654;9.070;2023-07-16T09:52:40;2.63;;;2.33;;
15198;SDS011;7700;48.654;9.070;2023-07-16T09:55:08;2.40;;;2.20;;
15198;SDS011;7700;48.654;9.070;2023-07-16T09:57:35;3.92;;;2.50;;
15198;SDS011;7700;48.654;9.070;2023-07-16T10:03:30;1.52;;;1.42;;
15198;SDS011;7700;48.654;9.070;2023-07-16T10:06:06;1.70;;;1.50;;
15198;SDS011;7700;48.654;9.070;2023-07-16T10:08:33;3.25;;;1.83;;
15198;SDS011;7700;48.654;9.070;2023-07-16T10:11:00;1.48;;;1.23;;
15198;SDS011;7700;48.654;9.070;2023-07-16T10:13:26;2.25;;;1.90;;
15198;SDS011;7700;48.654;9.070;2023-07-16T10:15:53;2.47;;;1.27;;
15198;SDS011;7700;48.654;9.070;2023-07-16T10:18:31;2.15;;;1.40;;
15198;SDS011;7700;48.654;9.070;2023-07-16T10:21:00;2.88;;;1.48;;
15198;SDS011;7700;48.654;9.070;2023-07-16T10:23:26;1.85;;;1.33;;
15198;SDS011;7700;48.654;9.070;2023-07-16T10:26:02;1.60;;;1.15;;
15198;SDS011;7700;48.654;9.070;2023-07-16T10:28:31;2.25;;;1.45;;
15198;SDS011;7700;48.654;9.070;2023-07-16T10:30:57;2.03;;;1.40;;
15198;SDS011;7700;48.654;9.070;2023-07-16T10:33:23;1.88;;;1.63;;
15198;SDS011;7700;48.654;9.070;2023-07-16T10:35:49;1.73;;;1.23;;
15198;SDS011;7700;48.654;9.070;2023-07-16T10:38:15;4.38;;;1.60;;
15198;SDS011;7700;48.654;9.070;2023-07-16T10:40:42;2.47;;;1.63;;
15198;SDS011;7700;48.654;9.070;2023-07-16T10:43:08;2.17;;;1.38;;
15198;SDS011;7700;48.654;9.070;2023-07-16T10:45:34;2.00;;;1.20;;
15198;SDS011;7700;48.654;9.070;2023-07-16T10:48:01;3.58;;;1.80;;
15198;SDS011;7700;48.654;9.070;2023-07-16T10:50:27;2.40;;;1.70;;
15198;SDS011;7700;48.654;9.070;2023-07-16T10:52:53;3.42;;;1.90;;
15198;SDS011;7700;48.654;9.070;2023-07-16T10:55:19;1.50;;;1.23;;
15198;SDS011;7700;48.654;9.070;2023-07-16T10:57:49;2.38;;;1.48;;
15198;SDS011;7700;48.654;9.070;2023-07-16T11:00:16;2.00;;;1.30;;
15198;SDS011;7700;48.654;9.070;2023-07-16T11:02:42;2.42;;;1.48;;
15198;SDS011;7700;48.654;9.070;2023-07-16T11:05:11;2.55;;;1.55;;
15198;SDS011;7700;48.654;9.070;2023-07-16T11:07:37;2.03;;;1.50;;
15198;SDS011;7700;48.654;9.070;2023-07-16T11:10:03;8.05;;;2.17;;
15198;SDS011;7700;48.654;9.070;2023-07-16T11:12:29;3.42;;;2.10;;
15198;SDS011;7700;48.654;9.070;2023-07-16T11:14:56;2.83;;;1.80;;
15198;SDS011;7700;48.654;9.070;2023-07-16T11:17:23;4.13;;;3.08;;
15198;SDS011;7700;48.654;9.070;2023-07-16T11:19:50;2.70;;;1.92;;
15198;SDS011;7700;48.654;9.070;2023-07-16T11:22:16;2.45;;;1.77;;
15198;SDS011;7700;48.654;9.070;2023-07-16T11:24:44;5.65;;;5.22;;
15198;SDS011;7700;48.654;9.070;2023-07-16T11:27:21;1.98;;;1.73;;
15198;SDS011;7700;48.654;9.070;2023-07-16T11:29:48;2.67;;;1.73;;
15198;SDS011;7700;48.654;9.070;2023-07-16T11:32:25;2.75;;;2.35;;
15198;SDS011;7700;48.654;9.070;2023-07-16T11:34:52;3.47;;;3.22;;
15198;SDS011;7700;48.654;9.070;2023-07-16T11:37:18;2.92;;;2.22;;
15198;SDS011;7700;48.654;9.070;2023-07-16T11:39:46;2.90;;;2.67;;
15198;SDS011;7700;48.654;9.070;2023-07-16T11:42:12;2.00;;;1.55;;
15198;SDS011;7700;48.654;9.070;2023-07-16T11:44:38;2.38;;;2.05;;
15198;SDS011;7700;48.654;9.070;2023-07-16T11:47:04;2.83;;;2.25;;
15198;SDS011;7700;48.654;9.070;2023-07-16T11:49:30;2.47;;;2.00;;
15198;SDS011;7700;48.654;9.070;2023-07-16T11:51:56;6.55;;;6.18;;
15198;SDS011;7700;48.654;9.070;2023-07-16T11:54:23;19.48;;;18.67;;
15198;SDS011;7700;48.654;9.070;2023-07-16T11:56:49;34.40;;;9.95;;
15198;SDS011;7700;48.654;9.070;2023-07-16T11:59:16;5.35;;;5.00;;
15198;SDS011;7700;48.654;9.070;2023-07-16T12:01:45;3.90;;;3.60;;
15198;SDS011;7700;48.654;9.070;2023-07-16T12:04:12;2.25;;;2.05;;
15198;SDS011;7700;48.654;9.070;2023-07-16T12:06:38;4.72;;;4.43;;
15198;SDS011;7700;48.654;9.070;2023-07-16T12:09:03;3.35;;;3.05;;
15198;SDS011;7700;48.654;9.070;2023-07-16T12:11:29;5.28;;;4.60;;
15198;SDS011;7700;48.654;9.070;2023-07-16T12:13:55;3.85;;;2.63;;
15198;SDS011;7700;48.654;9.070;2023-07-16T12:16:22;4.25;;;3.95;;
15198;SDS011;7700;48.654;9.070;2023-07-16T12:18:48;2.80;;;2.60;;
15198;SDS011;7700;48.654;9.070;2023-07-16T12:21:14;3.45;;;3.15;;
15198;SDS011;7700;48.654;9.070;2023-07-16T12:23:40;2.35;;;2.25;;
15198;SDS011;7700;48.654;9.070;2023-07-16T12:26:06;1.92;;;1.83;;
15198;SDS011;7700;48.654;9.070;2023-07-16T12:28:33;1.67;;;1.48;;
15198;SDS011;7700;48.654;9.070;2023-07-16T12:30:59;2.65;;;2.45;;
15198;SDS011;7700;48.654;9.070;2023-07-16T12:33:25;2.38;;;2.10;;
15198;SDS011;7700;48.654;9.070;2023-07-16T12:35:51;3.55;;;3.35;;
15198;SDS011;7700;48.654;9.070;2023-07-16T12:38:17;4.03;;;3.42;;
15198;SDS011;7700;48.654;9.070;2023-07-16T12:40:44;4.70;;;4.40;;
15198;SDS011;7700;48.654;9.070;2023-07-16T12:43:10;3.95;;;3.65;;
15198;SDS011;7700;48.654;9.070;2023-07-16T12:45:36;6.45;;;6.05;;
15198;SDS011;7700;48.654;9.070;2023-07-16T12:48:02;15.63;;;15.00;;
15198;SDS011;7700;48.654;9.070;2023-07-16T12:50:28;1.95;;;1.85;;
15198;SDS011;7700;48.654;9.070;2023-07-16T12:52:54;3.33;;;3.13;;
15198;SDS011;7700;48.654;9.070;2023-07-16T12:55:20;8.50;;;8.10;;
15198;SDS011;7700;48.654;9.070;2023-07-16T12:57:46;16.95;;;16.17;;
15198;SDS011;7700;48.654;9.070;2023-07-16T13:00:12;29.30;;;28.05;;
15198;SDS011;7700;48.654;9.070;2023-07-16T13:02:38;12.93;;;12.32;;
15198;SDS011;7700;48.654;9.070;2023-07-16T13:05:04;3.00;;;2.75;;
15198;SDS011;7700;48.654;9.070;2023-07-16T13:07:30;6.13;;;5.72;;
15198;SDS011;7700;48.654;9.070;2023-07-16T13:09:57;2.72;;;2.50;;
15198;SDS011;7700;48.654;9.070;2023-07-16T13:12:23;3.03;;;2.83;;
15198;SDS011;7700;48.654;9.070;2023-07-16T13:14:48;2.22;;;1.48;;
15198;SDS011;7700;48.654;9.070;2023-07-16T13:17:14;7.20;;;6.80;;
15198;SDS011;7700;48.654;9.070;2023-07-16T13:19:42;3.67;;;3.45;;
15198;SDS011;7700;48.654;9.070;2023-07-16T13:22:08;4.63;;;4.32;;
15198;SDS011;7700;48.654;9.070;2023-07-16T13:24:34;2.63;;;2.42;;
15198;SDS011;7700;48.654;9.070;2023-07-16T13:27:00;2.25;;;1.80;;
15198;SDS011;7700;48.654;9.070;2023-07-16T13:29:26;3.28;;;1.73;;
15198;SDS011;7700;48.654;9.070;2023-07-16T13:31:52;2.83;;;2.05;;
15198;SDS011;7700;48.654;9.070;2023-07-16T13:34:18;1.88;;;1.52;;
15198;SDS011;7700;48.654;9.070;2023-07-16T13:36:44;2.50;;;1.60;;
15198;SDS011;7700;48.654;9.070;2023-07-16T13:39:10;2.22;;;2.03;;
15198;SDS011;7700;48.654;9.070;2023-07-16T13:41:38;3.38;;;3.17;;
15198;SDS011;7700;48.654;9.070;2023-07-16T13:44:04;2.75;;;2.17;;
15198;SDS011;7700;48.654;9.070;2023-07-16T13:46:30;3.90;;;3.53;;
15198;SDS011;7700;48.654;9.070;2023-07-16T13:48:56;5.03;;;4.72;;
15198;SDS011;7700;48.654;9.070;2023-07-16T13:51:22;10.00;;;9.50;;
15198;SDS011;7700;48.654;9.070;2023-07-16T13:53:48;18.58;;;17.73;;
15198;SDS011;7700;48.654;9.070;2023-07-16T13:56:14;28.85;;;27.58;;
15198;SDS011;7700;48.654;9.070;2023-07-16T13:58:40;20.13;;;19.17;;
15198;SDS011;7700;48.654;9.070;2023-07-16T14:01:06;28.95;;;27.75;;
15198;SDS011;7700;48.654;9.070;2023-07-16T14:03:32;36.75;;;35.03;;
15198;SDS011;7700;48.654;9.070;2023-07-16T14:05:58;16.52;;;15.68;;
15198;SDS011;7700;48.654;9.070;2023-07-16T14:08:24;43.20;;;41.22;;
15198;SDS011;7700;48.654;9.070;2023-07-16T14:10:51;48.00;;;45.78;;
15198;SDS011;7700;48.654;9.070;2023-07-16T14:13:17;38.80;;;36.92;;
15198;SDS011;7700;48.654;9.070;2023-07-16T14:15:43;66.60;;;63.15;;
15198;SDS011;7700;48.654;9.070;2023-07-16T14:18:09;15.43;;;14.65;;
15198;SDS011;7700;48.654;9.070;2023-07-16T14:20:35;16.58;;;15.77;;
15198;SDS011;7700;48.654;9.070;2023-07-16T14:23:01;29.23;;;27.80;;
15198;SDS011;7700;48.654;9.070;2023-07-16T14:25:28;15.45;;;14.73;;
15198;SDS011;7700;48.654;9.070;2023-07-16T14:27:54;30.33;;;28.92;;
15198;SDS011;7700;48.654;9.070;2023-07-16T14:30:20;12.35;;;11.73;;
15198;SDS011;7700;48.654;9.070;2023-07-16T14:32:46;10.07;;;9.45;;
15198;SDS011;7700;48.654;9.070;2023-07-16T14:35:12;15.45;;;14.50;;
15198;SDS011;7700;48.654;9.070;2023-07-16T14:37:38;34.13;;;32.58;;
15198;SDS011;7700;48.654;9.070;2023-07-16T14:40:04;7.25;;;6.75;;
15198;SDS011;7700;48.654;9.070;2023-07-16T14:42:32;5.75;;;5.38;;
15198;SDS011;7700;48.654;9.070;2023-07-16T14:44:58;14.32;;;13.45;;
15198;SDS011;7700;48.654;9.070;2023-07-16T14:47:24;4.72;;;4.43;;
15198;SDS011;7700;48.654;9.070;2023-07-16T14:49:50;11.95;;;11.27;;
15198;SDS011;7700;48.654;9.070;2023-07-16T14:52:16;21.33;;;20.30;;
15198;SDS011;7700;48.654;9.070;2023-07-16T14:54:42;8.60;;;8.10;;
15198;SDS011;7700;48.654;9.070;2023-07-16T14:57:08;8.70;;;8.05;;
15198;SDS011;7700;48.654;9.070;2023-07-16T14:59:34;14.68;;;13.90;;
15198;SDS011;7700;48.654;9.070;2023-07-16T15:02:01;11.40;;;10.90;;